TimeAKDT,TemperatureF,Dew PointF,Humidity,Sea Level PressureIn,VisibilityMPH,Wind Direction,Wind SpeedMPH,Gust SpeedMPH,PrecipitationIn,Events,Conditions,WindDirDegrees,DateUTC
12:56 AM,37.0,28.0,70,29.98,10.0,Calm,Calm,-,N/A,,Clear,0,2013-09-16 08:56:00
1:56 AM,35.1,28.0,76,29.98,10.0,Calm,Calm,-,N/A,,Clear,0,2013-09-16 09:56:00
2:56 AM,30.9,27.0,85,29.97,10.0,Calm,Calm,-,N/A,,Clear,0,2013-09-16 10:56:00
3:56 AM,33.1,27.0,78,29.95,10.0,NE,4.6,-,N/A,,Clear,40,2013-09-16 11:56:00
4:56 AM,32.0,25.0,75,29.94,10.0,NNE,3.5,-,N/A,,Clear,30,2013-09-16 12:56:00
5:56 AM,32.0,25.0,75,29.92,10.0,NE,5.8,-,N/A,,Clear,40,2013-09-16 13:56:00
6:15 AM,30.2,24.8,80,29.90,13.0,NE,4.6,-,N/A,,Partly Cloudy,40,2013-09-16 14:15:00
6:55 AM,30.2,24.8,80,29.92,13.0,NE,4.6,-,N/A,,Partly Cloudy,50,2013-09-16 14:55:00
7:55 AM,32.0,24.8,75,29.90,65.0,NE,5.8,-,N/A,,Scattered Clouds,50,2013-09-16 15:55:00
8:55 AM,35.6,26.6,70,29.88,13.0,Calm,Calm,-,N/A,,Partly Cloudy,0,2013-09-16 16:55:00
9:55 AM,41.0,28.4,61,29.87,13.0,East,5.8,-,N/A,,Partly Cloudy,80,2013-09-16 17:55:00
10:55 AM,46.4,28.4,50,29.86,10.0,East,6.9,-,N/A,,Partly Cloudy,80,2013-09-16 18:55:00
11:55 AM,50.0,26.6,40,29.84,13.0,East,5.8,-,N/A,,Partly Cloudy,90,2013-09-16 19:55:00
12:55 PM,51.8,26.6,38,29.82,13.0,ENE,8.1,-,N/A,,Partly Cloudy,70,2013-09-16 20:55:00
1:55 PM,53.6,23.0,30,29.55,10.0,NE,11.5,-,N/A,,Partly Cloudy,50,2013-09-16 21:55:00
2:55 PM,55.4,24.8,31,29.76,25.0,NE,15.0,20.7,N/A,,Partly Cloudy,50,2013-09-16 22:55:00
3:55 PM,55.4,24.8,31,29.75,25.0,NE,16.1,-,N/A,,Partly Cloudy,40,2013-09-16 23:55:00
4:55 PM,53.6,23.0,30,29.74,25.0,ENE,13.8,19.6,N/A,,Partly Cloudy,60,2013-09-17 00:55:00
5:55 PM,51.8,24.8,35,29.74,25.0,NE,17.3,-,N/A,,Partly Cloudy,50,2013-09-17 01:55:00
6:55 PM,50.0,24.8,37,29.73,25.0,NE,16.1,24.2,N/A,,Scattered Clouds,50,2013-09-17 02:55:00
7:55 PM,46.4,26.6,46,29.74,25.0,NE,10.4,21.9,N/A,,Scattered Clouds,40,2013-09-17 03:55:00
8:55 PM,44.6,24.8,46,29.73,13.0,ENE,10.4,-,N/A,,Mostly Cloudy,60,2013-09-17 04:55:00
9:55 PM,44.6,24.8,46,29.73,7.0,NE,13.8,-,N/A,,Mostly Cloudy,50,2013-09-17 05:55:00
10:56 PM,42.1,23.0,47,29.71,10.0,ENE,13.8,-,N/A,,Clear,60,2013-09-17 06:56:00
11:56 PM,41.0,23.0,49,29.70,10.0,ENE,11.5,-,N/A,,Clear,60,2013-09-17 07:56:00